createdAt,value
2023-04-05T00:00:45.662Z,77.08
2023-04-05T00:05:49.954Z,77.49
2023-04-05T00:10:51.547Z,77.35
2023-04-05T00:15:53.137Z,77.74
2023-04-05T00:20:54.637Z,77.60
2023-04-05T00:25:56.139Z,78.21
2023-04-05T00:30:57.880Z,78.11
2023-04-05T00:36:09.847Z,78.52
2023-04-05T00:41:12.537Z,78.63
2023-04-05T00:46:14.254Z,78.93
2023-04-05T00:51:17.225Z,78.92
2023-04-05T00:56:21.588Z,78.90
2023-04-05T01:01:26.430Z,79.39
2023-04-05T01:06:50.923Z,79.06
2023-04-05T01:11:57.128Z,79.38
2023-04-05T01:16:58.601Z,79.67
2023-04-05T01:22:37.926Z,79.51
2023-04-05T01:27:52.604Z,79.72
2023-04-05T01:33:30.360Z,79.66
2023-04-05T01:38:33.482Z,79.95
2023-04-05T01:43:35.006Z,79.88
2023-04-05T01:48:36.577Z,79.92
2023-04-05T01:53:38.135Z,80.16
2023-04-05T01:58:39.706Z,80.35
2023-04-05T02:03:42.136Z,80.29
2023-04-05T02:08:43.743Z,80.38
2023-04-05T02:13:45.251Z,80.45
2023-04-05T02:18:50.819Z,80.90
2023-04-05T02:23:53.344Z,80.96
2023-04-05T02:28:54.849Z,80.83
2023-04-05T02:33:58.109Z,81.39
2023-04-05T02:38:59.565Z,81.86
2023-04-05T02:44:01.348Z,81.69
2023-04-05T02:49:06.050Z,81.88
2023-04-05T02:54:09.558Z,81.97
2023-04-05T02:59:13.503Z,82.01
2023-04-05T03:04:17.318Z,82.37
2023-04-05T03:09:18.845Z,82.12
2023-04-05T03:14:24.151Z,81.95
2023-04-05T03:19:27.132Z,82.33
2023-04-05T03:24:35.086Z,82.39
2023-04-05T03:29:38.974Z,82.67
2023-04-05T03:34:51.543Z,82.70
2023-04-05T03:39:54.830Z,82.68
2023-04-05T03:44:56.540Z,82.96
2023-04-05T03:49:58.127Z,82.98
2023-04-05T03:54:59.637Z,82.93
2023-04-05T04:00:14.052Z,82.99
2023-04-05T04:05:17.783Z,82.94
2023-04-05T04:10:22.368Z,83.05
2023-04-05T04:15:27.518Z,83.32
2023-04-05T04:20:47.700Z,83.23
2023-04-05T04:26:11.618Z,83.50
2023-04-05T04:31:21.417Z,83.40
2023-04-05T04:37:00.820Z,83.63
2023-04-05T04:42:38.536Z,83.70
2023-04-05T04:47:49.831Z,83.85
2023-04-05T04:53:07.430Z,83.92
2023-04-05T04:58:11.430Z,83.92
2023-04-05T05:03:13.538Z,83.93
2023-04-05T05:08:15.333Z,84.00
2023-04-05T05:13:17.826Z,84.25
2023-04-05T05:18:19.378Z,84.28
2023-04-05T05:23:21.252Z,84.26
2023-04-05T05:28:25.346Z,84.54
2023-04-05T05:33:26.852Z,84.55
2023-04-05T05:38:28.725Z,84.22
2023-04-05T05:43:30.545Z,84.67
2023-04-05T05:48:33.228Z,84.68
2023-04-05T05:53:34.893Z,84.70
2023-04-05T05:58:36.819Z,84.36
2023-04-05T06:03:38.546Z,84.98
2023-04-05T06:08:40.848Z,85.20
2023-04-05T06:13:42.329Z,85.05
2023-04-05T06:18:43.906Z,85.46
2023-04-05T06:23:45.468Z,85.43
2023-04-05T06:28:48.067Z,85.50
2023-04-05T06:33:49.612Z,85.32
2023-04-05T06:38:53.011Z,85.20
2023-04-05T06:43:56.284Z,84.65
2023-04-05T06:48:59.578Z,83.80
2023-04-05T06:54:02.057Z,82.87
2023-04-05T06:59:03.576Z,82.28
2023-04-05T07:04:05.171Z,81.60
2023-04-05T07:09:07.175Z,80.62
2023-04-05T07:14:08.680Z,80.24
2023-04-05T07:19:10.215Z,79.42
2023-04-05T07:24:11.746Z,76.72
2023-04-05T07:29:13.445Z,76.72
2023-04-05T07:34:14.926Z,69.46
2023-04-05T07:39:16.626Z,69.46
2023-04-05T07:44:18.154Z,64.52
2023-04-05T07:49:24.640Z,64.52
2023-04-05T07:54:26.723Z,61.64
2023-04-05T07:59:28.563Z,61.44
2023-04-05T08:04:30.243Z,60.51
2023-04-05T08:09:31.697Z,59.33
2023-04-05T08:14:33.271Z,58.03
2023-04-05T08:19:34.790Z,56.63
2023-04-05T08:24:36.392Z,56.33
2023-04-05T08:29:38.456Z,54.50
2023-04-05T08:34:40.012Z,53.85
2023-04-05T08:39:41.560Z,53.85
2023-04-05T08:44:44.610Z,51.23
2023-04-05T08:49:46.234Z,50.39
2023-04-05T08:54:49.647Z,50.12
2023-04-05T08:59:53.047Z,47.86
2023-04-05T09:04:54.876Z,47.42
2023-04-05T09:09:59.195Z,46.59
2023-04-05T09:15:01.160Z,45.76
2023-04-05T09:20:02.661Z,44.90
2023-04-05T09:25:04.249Z,45.01
2023-04-05T09:30:22.040Z,44.52
2023-04-05T09:35:28.498Z,43.98
2023-04-05T09:40:46.663Z,43.92
2023-04-05T09:45:54.303Z,43.52
2023-04-05T09:51:12.557Z,43.57
2023-04-05T09:56:14.862Z,43.09
2023-04-05T10:01:19.693Z,42.75
2023-04-05T10:06:21.340Z,42.32
2023-04-05T10:11:23.364Z,41.63
2023-04-05T10:16:28.444Z,41.44
2023-04-05T10:21:33.736Z,41.18
2023-04-05T10:27:19.235Z,41.05
2023-04-05T10:32:34.700Z,40.90
2023-04-05T10:37:48.678Z,40.72
2023-04-05T10:42:50.624Z,40.19
2023-04-05T10:47:57.698Z,39.62
2023-04-05T10:53:00.351Z,39.65
2023-04-05T10:58:02.707Z,39.64
2023-04-05T11:03:04.307Z,39.53
2023-04-05T11:08:07.766Z,39.94
2023-04-05T11:13:10.854Z,39.56
2023-04-05T11:18:24.641Z,39.51
2023-04-05T11:23:26.200Z,39.35
2023-04-05T11:28:41.764Z,39.35
2023-04-05T11:33:55.766Z,39.20
2023-04-05T11:39:23.371Z,38.92
2023-04-05T11:44:26.099Z,39.31
2023-04-05T11:49:28.148Z,39.32
2023-04-05T11:54:33.799Z,39.88
2023-04-05T11:59:35.937Z,39.93
2023-04-05T12:04:38.636Z,39.89
2023-04-05T12:10:13.710Z,39.85
2023-04-05T12:15:18.538Z,39.83
2023-04-05T12:20:25.145Z,39.80
2023-04-05T12:25:26.987Z,38.88
2023-04-05T12:30:35.112Z,38.72
2023-04-05T12:35:36.845Z,39.08
2023-04-05T12:40:40.712Z,38.91
2023-04-05T12:45:44.166Z,38.97
2023-04-05T12:50:48.242Z,38.95
2023-04-05T12:55:53.826Z,38.13
2023-04-05T13:00:55.642Z,38.19
2023-04-05T13:05:58.358Z,38.31
2023-04-05T13:11:01.037Z,38.15
2023-04-05T13:16:02.625Z,37.61
2023-04-05T13:21:07.652Z,37.61
2023-04-05T13:26:09.246Z,37.39
2023-04-05T13:31:12.008Z,36.96
2023-04-05T13:36:14.581Z,37.41
2023-04-05T13:41:16.189Z,37.22
2023-04-05T13:46:17.998Z,37.88
2023-04-05T13:51:19.537Z,37.98
2023-04-05T13:56:21.345Z,38.07
2023-04-05T14:01:22.875Z,38.20
2023-04-05T14:06:24.557Z,38.40
2023-04-05T14:11:26.541Z,38.49
2023-04-05T14:16:28.610Z,39.01
2023-04-05T14:21:30.277Z,39.09
2023-04-05T14:26:31.851Z,38.89
2023-04-05T14:31:33.390Z,39.07
2023-04-05T14:36:35.117Z,39.17
2023-04-05T14:41:37.489Z,38.61
2023-04-05T14:46:39.095Z,38.36
2023-04-05T14:51:40.720Z,38.37
2023-04-05T14:56:42.361Z,38.56
2023-04-05T15:01:45.510Z,38.13
2023-04-05T15:06:47.104Z,37.68
2023-04-05T15:11:48.618Z,38.10
2023-04-05T15:16:50.410Z,37.82
2023-04-05T15:21:51.894Z,37.40
2023-04-05T15:26:53.769Z,37.59
2023-04-05T15:31:55.421Z,37.62
2023-04-05T15:36:57.014Z,37.75
2023-04-05T15:41:58.541Z,37.61
2023-04-05T15:47:00.374Z,37.75
2023-04-05T15:52:01.914Z,38.05
2023-04-05T15:57:03.632Z,37.75
2023-04-05T16:02:05.377Z,37.90
2023-04-05T16:07:08.488Z,38.17
2023-04-05T16:12:10.830Z,38.09
2023-04-05T16:17:12.453Z,38.17
2023-04-05T16:22:14.069Z,38.26
2023-04-05T16:27:16.676Z,38.36
2023-04-05T16:32:18.185Z,38.36
2023-04-05T16:37:20.776Z,38.54
2023-04-05T16:42:22.457Z,40.36
2023-04-05T16:47:24.165Z,42.82
2023-04-05T16:52:25.812Z,44.58
2023-04-05T16:57:27.374Z,45.50
2023-04-05T17:02:28.939Z,46.62
2023-04-05T17:07:30.593Z,46.62
2023-04-05T17:12:33.533Z,48.95
2023-04-05T17:17:35.242Z,49.88
2023-04-05T17:22:37.228Z,50.54
2023-04-05T17:27:38.783Z,51.26
2023-04-05T17:32:40.308Z,51.56
2023-04-05T17:37:41.843Z,52.23
2023-04-05T17:42:43.375Z,52.79
2023-04-05T17:47:45.455Z,53.43
2023-04-05T17:52:47.068Z,54.04
2023-04-05T17:57:48.707Z,54.74
2023-04-05T18:07:53.175Z,56.12
2023-04-05T18:12:54.681Z,56.75
2023-04-05T18:17:56.225Z,57.13
2023-04-05T18:23:01.306Z,57.75
2023-04-05T18:28:09.365Z,58.23
2023-04-05T18:33:18.192Z,58.60
2023-04-05T18:38:20.239Z,59.15
2023-04-05T18:43:21.715Z,59.73
2023-04-05T18:48:25.076Z,60.06
2023-04-05T18:53:26.595Z,60.63
2023-04-05T18:58:28.100Z,61.26
2023-04-05T19:03:29.752Z,61.66
2023-04-05T19:08:31.420Z,62.22
2023-04-05T19:13:33.230Z,62.72
2023-04-05T19:18:34.776Z,63.50
2023-04-05T19:23:36.798Z,64.23
2023-04-05T19:28:38.343Z,64.79
2023-04-05T19:33:40.316Z,65.17
2023-04-05T19:38:41.808Z,65.78
2023-04-05T19:43:43.286Z,66.29
2023-04-05T19:48:45.897Z,67.00
2023-04-05T19:53:50.996Z,67.50
2023-04-05T19:59:23.114Z,68.05
2023-04-05T20:04:25.993Z,68.47
2023-04-05T20:09:31.196Z,69.02
2023-04-05T20:14:41.955Z,69.20
2023-04-05T20:19:57.615Z,69.50
2023-04-05T20:24:59.176Z,70.24
2023-04-05T20:30:00.693Z,70.40
2023-04-05T20:35:02.181Z,70.80
2023-04-05T20:40:04.047Z,71.40
2023-04-05T20:45:08.086Z,71.73
2023-04-05T20:50:12.240Z,72.02
2023-04-05T20:55:13.733Z,72.45
2023-04-05T21:00:16.331Z,72.72
2023-04-05T21:05:17.956Z,72.93
2023-04-05T21:10:21.809Z,73.15
2023-04-05T21:15:23.352Z,73.37
2023-04-05T21:20:24.849Z,73.81
2023-04-05T21:25:26.398Z,73.68
2023-04-05T21:30:28.639Z,74.25
2023-04-05T21:35:30.470Z,73.87
2023-04-05T21:40:32.546Z,73.99
2023-04-05T21:45:34.046Z,74.49
2023-04-05T21:50:35.793Z,74.53
2023-04-05T21:55:37.290Z,74.23
2023-04-05T22:00:38.812Z,74.81
2023-04-05T22:05:40.367Z,75.18
2023-04-05T22:10:42.156Z,75.37
2023-04-05T22:15:44.167Z,75.53
2023-04-05T22:20:45.746Z,75.53
2023-04-05T22:25:47.253Z,75.68
2023-04-05T22:30:49.519Z,76.00
2023-04-05T22:35:51.642Z,76.59
2023-04-05T22:40:53.344Z,76.40
2023-04-05T22:45:54.830Z,76.57
2023-04-05T22:50:57.277Z,76.96
2023-04-05T22:55:58.788Z,77.41
2023-04-05T23:01:01.575Z,77.54
2023-04-05T23:06:03.204Z,77.38
2023-04-05T23:11:04.843Z,78.00
2023-04-05T23:16:06.619Z,77.63
2023-04-05T23:21:08.109Z,78.19
2023-04-05T23:26:09.629Z,78.10
2023-04-05T23:31:11.256Z,78.44
2023-04-05T23:36:12.801Z,78.58
2023-04-05T23:41:14.390Z,78.94
2023-04-05T23:46:16.068Z,79.00
2023-04-05T23:51:17.752Z,79.00
2023-04-05T23:56:19.265Z,79.30
